createdAt,value
2023-03-04T00:05:52.733Z,81.39
2023-03-04T00:12:35.071Z,81.63
2023-03-04T00:19:17.402Z,82.31
2023-03-04T00:25:59.733Z,82.72
2023-03-04T00:32:42.107Z,83.72
2023-03-04T00:39:24.498Z,83.61
2023-03-04T00:46:07.290Z,83.93
2023-03-04T00:52:49.788Z,84.08
2023-03-04T00:59:33.097Z,84.57
2023-03-04T01:06:15.941Z,84.45
2023-03-04T01:12:58.322Z,84.28
2023-03-04T01:19:42.495Z,84.02
2023-03-04T01:26:24.953Z,83.69
2023-03-04T01:33:07.591Z,83.46
2023-03-04T01:39:49.913Z,83.30
2023-03-04T01:46:32.903Z,83.61
2023-03-04T01:53:27.135Z,83.27
2023-03-04T02:00:25.521Z,83.47
2023-03-04T02:07:08.919Z,83.54
2023-03-04T02:13:53.528Z,83.85
2023-03-04T02:21:23.177Z,84.45
2023-03-04T02:28:05.650Z,84.45
2023-03-04T02:34:50.878Z,84.59
2023-03-04T02:41:33.619Z,85.19
2023-03-04T02:48:22.311Z,85.77
2023-03-04T02:55:05.188Z,85.82
2023-03-04T03:01:47.846Z,86.06
2023-03-04T03:08:30.479Z,86.01
2023-03-04T03:15:13.568Z,86.60
2023-03-04T03:21:56.126Z,86.32
2023-03-04T03:28:38.652Z,86.02
2023-03-04T03:35:21.417Z,85.75
2023-03-04T03:42:04.175Z,85.85
2023-03-04T03:48:46.690Z,85.88
2023-03-04T03:55:29.339Z,86.19
2023-03-04T04:02:11.783Z,85.73
2023-03-04T04:08:54.166Z,85.17
2023-03-04T04:15:38.724Z,84.97
2023-03-04T04:22:21.727Z,84.68
2023-03-04T04:29:04.413Z,84.75
2023-03-04T04:35:48.669Z,84.25
2023-03-04T04:42:31.171Z,84.18
2023-03-04T04:49:13.691Z,83.66
2023-03-04T04:55:56.087Z,83.68
2023-03-04T05:02:38.621Z,83.74
2023-03-04T05:09:23.006Z,83.56
2023-03-04T05:16:06.105Z,83.51
2023-03-04T05:22:48.526Z,83.21
2023-03-04T05:29:30.951Z,83.54
2023-03-04T05:36:13.348Z,83.94
2023-03-04T05:42:58.676Z,84.15
2023-03-04T05:49:41.978Z,84.41
2023-03-04T05:56:24.456Z,84.30
2023-03-04T06:03:06.816Z,83.91
2023-03-04T06:09:51.828Z,83.12
2023-03-04T06:16:34.379Z,82.93
2023-03-04T06:23:17.492Z,83.42
2023-03-04T06:30:01.790Z,83.36
2023-03-04T06:36:44.748Z,83.49
2023-03-04T06:43:27.262Z,83.53
2023-03-04T06:50:12.525Z,82.66
2023-03-04T06:56:54.878Z,82.62
2023-03-04T07:03:37.239Z,82.02
2023-03-04T07:10:20.498Z,81.43
2023-03-04T07:17:02.870Z,80.26
2023-03-04T07:23:45.575Z,78.42
2023-03-04T07:30:27.992Z,77.13
2023-03-04T07:37:10.453Z,75.98
2023-03-04T07:43:59.493Z,75.61
2023-03-04T07:50:42.085Z,75.08
2023-03-04T07:57:24.472Z,74.08
2023-03-04T08:04:08.027Z,73.19
2023-03-04T08:10:50.562Z,71.96
2023-03-04T08:17:32.848Z,69.64
2023-03-04T08:24:15.166Z,68.96
2023-03-04T08:30:57.654Z,67.82
2023-03-04T08:37:40.100Z,64.31
2023-03-04T08:44:22.455Z,58.35
2023-03-04T08:51:11.325Z,55.79
2023-03-04T08:57:53.634Z,53.72
2023-03-04T09:04:37.733Z,50.46
2023-03-04T09:11:20.147Z,50.93
2023-03-04T09:18:04.068Z,47.79
2023-03-04T09:24:46.354Z,47.33
2023-03-04T09:31:29.765Z,46.63
2023-03-04T09:38:12.147Z,44.57
2023-03-04T09:44:55.553Z,40.96
2023-03-04T09:51:46.997Z,40.50
2023-03-04T09:59:07.608Z,40.51
2023-03-04T10:06:06.178Z,40.60
2023-03-04T10:12:51.224Z,41.32
2023-03-04T10:20:06.106Z,42.82
2023-03-04T10:27:07.454Z,44.53
2023-03-04T10:33:50.234Z,45.37
2023-03-04T10:40:39.655Z,45.45
2023-03-04T10:47:31.522Z,44.58
2023-03-04T10:54:34.270Z,39.77
2023-03-04T11:01:17.718Z,40.16
2023-03-04T11:08:00.729Z,39.72
2023-03-04T11:14:49.310Z,41.22
2023-03-04T11:21:40.333Z,42.08
2023-03-04T11:28:54.411Z,35.99
2023-03-04T11:36:21.740Z,33.61
2023-03-04T11:43:18.724Z,35.20
2023-03-04T11:50:57.089Z,35.94
2023-03-04T11:58:04.754Z,35.76
2023-03-04T12:05:18.725Z,32.51
2023-03-04T12:12:27.129Z,33.67
2023-03-04T12:19:43.881Z,34.58
2023-03-04T12:27:07.952Z,32.89
2023-03-04T12:34:19.357Z,31.37
2023-03-04T12:41:29.676Z,32.17
2023-03-04T12:49:04.214Z,31.58
2023-03-04T12:55:47.909Z,31.71
2023-03-04T13:02:58.451Z,31.12
2023-03-04T13:09:55.900Z,31.71
2023-03-04T13:17:02.000Z,33.97
2023-03-04T13:23:44.660Z,35.72
2023-03-04T13:30:33.561Z,36.51
2023-03-04T13:37:36.128Z,37.78
2023-03-04T13:44:58.607Z,38.27
2023-03-04T13:51:45.222Z,37.46
2023-03-04T13:58:28.259Z,35.40
2023-03-04T14:05:12.537Z,35.36
2023-03-04T14:12:03.925Z,35.33
2023-03-04T14:18:46.718Z,35.25
2023-03-04T14:25:36.887Z,35.27
2023-03-04T14:32:20.598Z,36.66
2023-03-04T14:39:07.337Z,35.53
2023-03-04T14:45:53.865Z,35.93
2023-03-04T14:52:46.267Z,37.62
2023-03-04T14:59:35.233Z,38.46
2023-03-04T15:06:26.244Z,40.23
2023-03-04T15:13:09.905Z,40.48
2023-03-04T15:20:07.545Z,40.61
2023-03-04T15:26:50.554Z,44.40
2023-03-04T15:33:34.004Z,45.65
2023-03-04T15:40:43.104Z,43.11
2023-03-04T15:47:25.852Z,38.77
2023-03-04T15:54:14.103Z,38.95
2023-03-04T16:00:56.649Z,37.62
2023-03-04T16:07:43.224Z,38.95
2023-03-04T16:14:27.440Z,37.54
2023-03-04T16:21:18.511Z,38.68
2023-03-04T16:28:04.312Z,38.71
2023-03-04T16:34:47.542Z,39.40
2023-03-04T16:41:30.855Z,39.91
2023-03-04T16:48:13.291Z,40.61
2023-03-04T16:54:56.117Z,41.70
2023-03-04T17:01:38.708Z,42.12
2023-03-04T17:08:21.085Z,42.89
2023-03-04T17:15:04.426Z,43.34
2023-03-04T17:21:46.844Z,43.48
2023-03-04T17:28:29.591Z,44.31
2023-03-04T17:35:12.277Z,44.76
2023-03-04T17:42:00.389Z,45.24
2023-03-04T17:48:43.280Z,44.86
2023-03-04T17:55:26.353Z,45.28
2023-03-04T18:02:16.302Z,45.67
2023-03-04T18:08:58.661Z,46.10
2023-03-04T18:15:41.278Z,46.64
2023-03-04T18:22:25.530Z,47.29
2023-03-04T19:02:40.978Z,50.01
2023-03-04T19:09:23.559Z,49.75
2023-03-04T19:16:06.518Z,49.22
2023-03-04T19:22:49.101Z,49.00
2023-03-04T19:29:32.059Z,49.53
2023-03-04T19:36:14.793Z,49.35
2023-03-04T19:42:58.074Z,49.24
2023-03-04T19:49:40.484Z,49.97
2023-03-04T19:56:23.452Z,50.64
2023-03-04T20:03:07.832Z,51.09
2023-03-04T20:09:50.244Z,52.09
2023-03-04T20:16:35.816Z,52.16
2023-03-04T20:23:20.387Z,52.08
2023-03-04T20:30:04.076Z,52.44
2023-03-04T20:36:46.585Z,52.51
2023-03-04T20:43:31.237Z,52.69
2023-03-04T20:50:13.595Z,52.27
2023-03-04T20:56:59.103Z,51.76
2023-03-04T21:03:41.518Z,52.00
2023-03-04T21:10:24.095Z,51.87
2023-03-04T21:17:06.870Z,51.92
2023-03-04T21:23:54.842Z,52.14
2023-03-04T21:30:37.304Z,51.99
2023-03-04T21:37:21.257Z,52.01
2023-03-04T21:44:03.678Z,52.28
2023-03-04T21:50:46.014Z,52.26
2023-03-04T21:57:28.438Z,52.66
2023-03-04T22:04:10.705Z,52.91
2023-03-04T22:10:55.167Z,53.23
2023-03-04T22:17:37.505Z,53.50
2023-03-04T22:24:20.639Z,54.30
2023-03-04T22:31:03.543Z,54.28
2023-03-04T22:37:45.935Z,55.02
2023-03-04T22:44:28.292Z,54.78
2023-03-04T22:51:11.228Z,54.83
2023-03-04T22:57:53.652Z,55.05
2023-03-04T23:04:36.202Z,55.43
2023-03-04T23:11:23.728Z,55.79
2023-03-04T23:18:06.053Z,55.72
2023-03-04T23:24:48.420Z,55.93
2023-03-04T23:31:32.766Z,56.10
2023-03-04T23:38:15.788Z,56.47
2023-03-04T23:44:58.195Z,56.62
2023-03-04T23:51:41.142Z,56.82
2023-03-04T23:58:23.537Z,57.06
